TimeEDT,TemperatureF,Dew PointF,Humidity,Sea Level PressureIn,VisibilityMPH,Wind Direction,Wind SpeedMPH,Gust SpeedMPH,PrecipitationIn,Events,Conditions,WindDirDegrees,DateUTC
12:51 AM,44.1,43.0,96,29.80,10.0,WSW,8.1,-,0.00,Rain,Light Rain,250,2011-10-01 04:51:00
1:51 AM,44.1,43.0,96,29.80,10.0,WSW,6.9,-,0.00,,Overcast,250,2011-10-01 05:51:00
2:51 AM,44.1,42.1,93,29.81,5.0,WSW,9.2,-,0.00,Rain,Light Rain,240,2011-10-01 06:51:00
3:51 AM,44.1,42.1,93,29.80,10.0,WSW,9.2,-,0.00,,Overcast,240,2011-10-01 07:51:00
4:51 AM,44.1,42.1,93,29.82,10.0,SW,8.1,-,0.00,Rain,Light Rain,220,2011-10-01 08:51:00
5:00 AM,44.6,42.8,93,29.80,9.0,SW,9.2,-,0.01,Rain,Light Rain,230,2011-10-01 09:00:00
5:51 AM,44.1,43.0,96,29.83,10.0,WSW,4.6,-,0.02,Rain,Light Rain,250,2011-10-01 09:51:00
6:51 AM,44.1,43.0,96,29.83,5.0,SW,8.1,-,0.03,Rain,Light Rain,220,2011-10-01 10:51:00
7:26 AM,44.6,42.8,93,29.83,2.5,SSW,6.9,-,N/A,,Light Drizzle,210,2011-10-01 11:26:00
7:28 AM,44.6,42.8,93,29.83,1.0,SW,5.8,-,0.00,,Light Drizzle,220,2011-10-01 11:28:00
7:51 AM,45.0,44.1,97,29.86,1.0,SSW,5.8,-,0.01,Rain,Light Rain,200,2011-10-01 11:51:00
8:51 AM,45.0,44.1,97,29.88,1.0,Calm,Calm,-,0.05,Rain,Rain,0,2011-10-01 12:51:00
9:51 AM,48.0,46.0,93,29.90,1.0,North,8.1,-,0.06,Rain,Light Rain,350,2011-10-01 13:51:00
10:37 AM,50.0,46.4,87,29.90,1.0,NNE,12.7,23.0,0.02,Rain,Light Rain,20,2011-10-01 14:37:00
10:51 AM,48.9,46.9,93,29.92,1.0,NNE,16.1,25.3,0.04,Rain,Light Rain,20,2011-10-01 14:51:00
11:31 AM,48.2,46.4,93,29.93,8.0,North,15.0,-,0.01,Rain,Light Rain,360,2011-10-01 15:31:00
11:51 AM,48.0,45.0,89,29.95,10.0,North,13.8,23.0,0.01,,Overcast,360,2011-10-01 15:51:00
12:24 PM,48.2,44.6,87,29.95,1.5,North,15.0,24.2,0.00,Rain,Light Rain,360,2011-10-01 16:24:00
12:51 PM,48.0,45.0,89,29.97,1.5,North,11.5,-,0.00,Rain,Light Rain,350,2011-10-01 16:51:00
1:14 PM,46.4,44.6,93,29.96,1.5,North,16.1,21.9,0.01,Rain,Light Rain,350,2011-10-01 17:14:00
1:42 PM,46.4,44.6,93,29.96,3.0,North,13.8,23.0,0.01,Rain,Light Rain,360,2011-10-01 17:42:00
1:51 PM,46.9,44.1,90,29.97,6.0,North,15.0,23.0,0.01,,Overcast,360,2011-10-01 17:51:00
2:51 PM,46.9,44.1,90,29.97,6.0,North,16.1,-,0.00,Rain,Light Rain,350,2011-10-01 18:51:00
3:51 PM,45.0,42.1,90,30.00,3.0,North,17.3,28.8,0.00,Rain,Light Rain,350,2011-10-01 19:51:00
4:14 PM,44.6,42.8,93,29.98,3.0,NNW,16.1,23.0,0.00,Rain,Light Rain,340,2011-10-01 20:14:00
4:51 PM,45.0,41.0,86,30.02,7.0,North,18.4,24.2,0.00,,Overcast,350,2011-10-01 20:51:00
5:06 PM,44.6,41.0,87,30.00,7.0,North,15.0,-,N/A,,Overcast,360,2011-10-01 21:06:00
5:51 PM,46.0,41.0,83,30.02,10.0,North,10.4,-,N/A,,Overcast,350,2011-10-01 21:51:00
6:51 PM,46.0,39.9,79,30.03,10.0,North,10.4,-,N/A,,Mostly Cloudy,360,2011-10-01 22:51:00
7:51 PM,42.1,39.0,89,30.03,10.0,NW,3.5,-,N/A,,Mostly Cloudy,310,2011-10-01 23:51:00
8:51 PM,44.1,43.0,96,30.04,10.0,WNW,3.5,-,N/A,,Overcast,300,2011-10-02 00:51:00
9:51 PM,46.0,42.1,86,30.04,10.0,North,6.9,-,N/A,,Mostly Cloudy,350,2011-10-02 01:51:00
10:51 PM,46.0,39.0,76,30.03,10.0,North,6.9,-,N/A,,Overcast,350,2011-10-02 02:51:00
11:51 PM,45.0,36.0,71,30.03,10.0,NNW,8.1,-,N/A,,Mostly Cloudy,340,2011-10-02 03:51:00